map of CJM home
CJM - Airport
Location
City:  Chumphon, Chumphon, Thailand
Near (Alt.):Chumporn
ICAO:VTSE
IATA:CJM

Details
Type:Airport (Aerodrome, Airfield)
Latitude:1042'40"N (10.711200)
Longitude:9921'42"E (99.361706)
Datum:WGS 1984
Elevation:18 ft (5 m)
Variation:0.44W (WMM2015 magnetic declination)
0.02 annual change
Runways:1
Longest:6890 × 148 ft (2100 × 45 m), paved

Time
Time Zone:UTC+7
Local Time:

Weather
METAR:VTSE 180400Z 12008KT 090V150 8000 -RA FEW012 SCT018 BKN080 27/25 Q1012 TEMPO TL0500 5000 -RA BR
TAF:VTSE 172300Z 1800/1824 08008KT 8000 FEW020 BKN100
TEMPO 1800/1806 5000 -RA BR SCT015 BKN100
TEMPO 1806/1812 5000 RA SCT015 BKN100
TEMPO 1818/1824 5000 -RA BR SCT015 BKN100

Related Locations
Nearby:
Farthest:CHM: 12262 mi / 19734 km
Chimbote [Teniente FAP Jaime A. de Montrevil Morales], ANC, PE

Find:

   beyond  
but within

Other Information
Maps:
NOTAMs:
Links:
Sources:

  
  • flag of Thailand
  

Sectional Chart

Flight Planning
at skyvector.com

Satellite Image

Google Maps Satellite view

 

Copyright © 2004-2019 Karl L. Swartz. All rights reserved.
The Great Circle Mapper name and logo are trademarks of the Great Circle Mapper.
All other trademarks mentioned herein belong to their respective owners.
Please see credits for attibutions and further copyright information.

  Follow gcmap on Facebook Follow gcmap on Twitter Follow gcmap on Google+ GCmap on LinkedIn

hCard Microformat

Geo Microformat